sensor_id;sensor_type;location;lat;lon;timestamp;pressure;altitude;pressure_sealevel;temperature;humidity
35151;BME280;55720;51.972;4.624;2022-09-09T00:00:15;100838.31;;;14.83;100.00
35151;BME280;55720;51.972;4.624;2022-09-09T00:02:43;100852.91;;;14.83;100.00
35151;BME280;55720;51.972;4.624;2022-09-09T00:07:52;100888.66;;;14.76;100.00
35151;BME280;55720;51.972;4.624;2022-09-09T00:18:03;100902.97;;;14.62;100.00
35151;BME280;55720;51.972;4.624;2022-09-09T00:20:35;100898.16;;;14.59;100.00
35151;BME280;55720;51.972;4.624;2022-09-09T00:25:37;100889.94;;;14.47;100.00
35151;BME280;55720;51.972;4.624;2022-09-09T00:28:19;100886.66;;;14.57;100.00
35151;BME280;55720;51.972;4.624;2022-09-09T00:30:44;100875.88;;;14.52;100.00
35151;BME280;55720;51.972;4.624;2022-09-09T00:33:13;100876.13;;;14.47;100.00
35151;BME280;55720;51.972;4.624;2022-09-09T00:35:50;100861.72;;;14.54;100.00
35151;BME280;55720;51.972;4.624;2022-09-09T00:38:18;100856.03;;;14.47;100.00
35151;BME280;55720;51.972;4.624;2022-09-09T00:40:49;100859.03;;;14.42;100.00
35151;BME280;55720;51.972;4.624;2022-09-09T00:43:25;100857.00;;;14.39;100.00
35151;BME280;55720;51.972;4.624;2022-09-09T00:48:34;100851.00;;;14.37;100.00
35151;BME280;55720;51.972;4.624;2022-09-09T00:51:17;100848.00;;;14.42;100.00
35151;BME280;55720;51.972;4.624;2022-09-09T00:56:37;100853.59;;;14.45;100.00
35151;BME280;55720;51.972;4.624;2022-09-09T00:59:14;100853.25;;;14.47;100.00
35151;BME280;55720;51.972;4.624;2022-09-09T01:01:47;100863.59;;;14.34;100.00
35151;BME280;55720;51.972;4.624;2022-09-09T01:04:15;100872.31;;;14.36;100.00
35151;BME280;55720;51.972;4.624;2022-09-09T01:06:41;100885.06;;;14.41;100.00
35151;BME280;55720;51.972;4.624;2022-09-09T01:14:30;100885.38;;;14.23;100.00
35151;BME280;55720;51.972;4.624;2022-09-09T01:19:47;100881.38;;;14.21;100.00
35151;BME280;55720;51.972;4.624;2022-09-09T01:22:26;100891.34;;;14.25;100.00
35151;BME280;55720;51.972;4.624;2022-09-09T01:27:29;100898.25;;;14.47;100.00
35151;BME280;55720;51.972;4.624;2022-09-09T01:29:54;100897.97;;;14.52;100.00
35151;BME280;55720;51.972;4.624;2022-09-09T01:35:05;100912.50;;;14.65;100.00
35151;BME280;55720;51.972;4.624;2022-09-09T01:37:32;100902.31;;;14.69;100.00
35151;BME280;55720;51.972;4.624;2022-09-09T01:39:57;100916.59;;;14.71;100.00
35151;BME280;55720;51.972;4.624;2022-09-09T01:42:23;100909.75;;;14.65;100.00
35151;BME280;55720;51.972;4.624;2022-09-09T01:44:48;100919.44;;;14.59;100.00
35151;BME280;55720;51.972;4.624;2022-09-09T01:47:14;100913.13;;;14.58;100.00
35151;BME280;55720;51.972;4.624;2022-09-09T01:49:39;100922.59;;;14.57;100.00
35151;BME280;55720;51.972;4.624;2022-09-09T01:52:05;100922.75;;;14.49;100.00
35151;BME280;55720;51.972;4.624;2022-09-09T01:54:31;100924.78;;;14.36;100.00
35151;BME280;55720;51.972;4.624;2022-09-09T01:57:10;100925.16;;;14.35;100.00
35151;BME280;55720;51.972;4.624;2022-09-09T02:02:26;100929.75;;;14.30;100.00
35151;BME280;55720;51.972;4.624;2022-09-09T02:05:08;100928.34;;;14.37;100.00
35151;BME280;55720;51.972;4.624;2022-09-09T02:07:48;100926.06;;;14.39;100.00
35151;BME280;55720;51.972;4.624;2022-09-09T02:10:20;100919.66;;;14.50;100.00
35151;BME280;55720;51.972;4.624;2022-09-09T02:12:51;100920.97;;;14.56;100.00
35151;BME280;55720;51.972;4.624;2022-09-09T02:15:21;100921.06;;;14.60;100.00
35151;BME280;55720;51.972;4.624;2022-09-09T02:17:48;100924.53;;;14.57;100.00
35151;BME280;55720;51.972;4.624;2022-09-09T02:20:16;100929.44;;;14.48;100.00
35151;BME280;55720;51.972;4.624;2022-09-09T02:22:43;100933.53;;;14.38;100.00
35151;BME280;55720;51.972;4.624;2022-09-09T02:25:10;100938.81;;;14.43;100.00
35151;BME280;55720;51.972;4.624;2022-09-09T02:27:37;100936.41;;;14.42;100.00
35151;BME280;55720;51.972;4.624;2022-09-09T02:30:03;100927.91;;;14.35;100.00
35151;BME280;55720;51.972;4.624;2022-09-09T02:32:29;100925.75;;;14.28;100.00
35151;BME280;55720;51.972;4.624;2022-09-09T02:34:58;100926.28;;;14.18;100.00
35151;BME280;55720;51.972;4.624;2022-09-09T02:37:27;100909.88;;;14.09;100.00
35151;BME280;55720;51.972;4.624;2022-09-09T02:39:54;100904.44;;;14.13;100.00
35151;BME280;55720;51.972;4.624;2022-09-09T02:42:20;100910.97;;;14.20;100.00
35151;BME280;55720;51.972;4.624;2022-09-09T02:44:45;100905.34;;;14.17;100.00
35151;BME280;55720;51.972;4.624;2022-09-09T02:52:15;100901.44;;;14.18;100.00
35151;BME280;55720;51.972;4.624;2022-09-09T02:54:42;100905.16;;;14.10;100.00
35151;BME280;55720;51.972;4.624;2022-09-09T02:57:12;100900.59;;;14.02;100.00
35151;BME280;55720;51.972;4.624;2022-09-09T02:59:39;100905.50;;;14.08;100.00
35151;BME280;55720;51.972;4.624;2022-09-09T03:02:05;100898.97;;;14.01;100.00
35151;BME280;55720;51.972;4.624;2022-09-09T03:04:30;100895.22;;;13.93;100.00
35151;BME280;55720;51.972;4.624;2022-09-09T03:06:56;100898.25;;;13.88;100.00
35151;BME280;55720;51.972;4.624;2022-09-09T03:09:22;100895.84;;;13.87;100.00
35151;BME280;55720;51.972;4.624;2022-09-09T03:11:47;100893.97;;;13.91;100.00
35151;BME280;55720;51.972;4.624;2022-09-09T03:14:12;100895.50;;;13.88;100.00
35151;BME280;55720;51.972;4.624;2022-09-09T03:16:37;100888.47;;;13.91;100.00
35151;BME280;55720;51.972;4.624;2022-09-09T03:19:03;100895.41;;;13.85;100.00
35151;BME280;55720;51.972;4.624;2022-09-09T03:21:28;100895.22;;;13.93;100.00
35151;BME280;55720;51.972;4.624;2022-09-09T03:23:53;100895.69;;;13.95;100.00
35151;BME280;55720;51.972;4.624;2022-09-09T03:26:18;100900.25;;;14.03;100.00
35151;BME280;55720;51.972;4.624;2022-09-09T03:28:44;100906.41;;;14.12;100.00
35151;BME280;55720;51.972;4.624;2022-09-09T03:31:09;100901.06;;;14.19;100.00
35151;BME280;55720;51.972;4.624;2022-09-09T03:33:38;100909.25;;;14.16;100.00
35151;BME280;55720;51.972;4.624;2022-09-09T03:36:04;100909.81;;;14.21;100.00
35151;BME280;55720;51.972;4.624;2022-09-09T03:38:29;100900.72;;;14.21;100.00
35151;BME280;55720;51.972;4.624;2022-09-09T03:40:56;100908.47;;;14.31;100.00
35151;BME280;55720;51.972;4.624;2022-09-09T03:43:22;100911.84;;;14.24;100.00
35151;BME280;55720;51.972;4.624;2022-09-09T03:45:48;100916.28;;;14.29;100.00
35151;BME280;55720;51.972;4.624;2022-09-09T03:48:14;100917.72;;;14.23;100.00
35151;BME280;55720;51.972;4.624;2022-09-09T03:50:43;100918.19;;;14.25;100.00
35151;BME280;55720;51.972;4.624;2022-09-09T03:53:09;100910.50;;;14.18;100.00
35151;BME280;55720;51.972;4.624;2022-09-09T03:55:34;100908.34;;;14.12;100.00
35151;BME280;55720;51.972;4.624;2022-09-09T03:57:59;100906.22;;;14.05;100.00
35151;BME280;55720;51.972;4.624;2022-09-09T04:00:25;100905.06;;;14.06;100.00
35151;BME280;55720;51.972;4.624;2022-09-09T04:02:51;100894.25;;;14.01;100.00
35151;BME280;55720;51.972;4.624;2022-09-09T04:05:19;100900.69;;;14.05;100.00
35151;BME280;55720;51.972;4.624;2022-09-09T04:07:44;100890.53;;;14.09;100.00
35151;BME280;55720;51.972;4.624;2022-09-09T04:10:09;100895.25;;;14.09;100.00
35151;BME280;55720;51.972;4.624;2022-09-09T04:12:35;100875.22;;;14.12;100.00
35151;BME280;55720;51.972;4.624;2022-09-09T04:15:00;100868.81;;;14.08;100.00
35151;BME280;55720;51.972;4.624;2022-09-09T04:17:27;100869.78;;;14.00;100.00
35151;BME280;55720;51.972;4.624;2022-09-09T04:19:52;100875.22;;;14.12;100.00
35151;BME280;55720;51.972;4.624;2022-09-09T04:22:17;100868.09;;;14.11;100.00
35151;BME280;55720;51.972;4.624;2022-09-09T04:24:42;100860.97;;;14.10;100.00
35151;BME280;55720;51.972;4.624;2022-09-09T04:27:07;100855.47;;;14.10;100.00
35151;BME280;55720;51.972;4.624;2022-09-09T04:29:33;100850.38;;;14.12;100.00
35151;BME280;55720;51.972;4.624;2022-09-09T04:31:58;100858.31;;;14.13;100.00
35151;BME280;55720;51.972;4.624;2022-09-09T04:34:23;100839.59;;;14.07;100.00
35151;BME280;55720;51.972;4.624;2022-09-09T04:36:50;100845.66;;;14.12;100.00
35151;BME280;55720;51.972;4.624;2022-09-09T04:39:16;100851.72;;;14.18;100.00
35151;BME280;55720;51.972;4.624;2022-09-09T04:41:42;100838.00;;;14.21;100.00
35151;BME280;55720;51.972;4.624;2022-09-09T04:44:07;100832.75;;;14.16;100.00
35151;BME280;55720;51.972;4.624;2022-09-09T04:46:32;100826.75;;;14.14;100.00
35151;BME280;55720;51.972;4.624;2022-09-09T04:48:59;100826.50;;;14.04;100.00
35151;BME280;55720;51.972;4.624;2022-09-09T04:51:24;100825.72;;;14.03;100.00
35151;BME280;55720;51.972;4.624;2022-09-09T04:53:50;100824.81;;;13.99;100.00
35151;BME280;55720;51.972;4.624;2022-09-09T04:56:16;100827.22;;;14.01;100.00
35151;BME280;55720;51.972;4.624;2022-09-09T04:58:42;100822.16;;;14.03;100.00
35151;BME280;55720;51.972;4.624;2022-09-09T05:01:20;100824.63;;;14.08;100.00
35151;BME280;55720;51.972;4.624;2022-09-09T05:03:46;100820.63;;;14.05;100.00
35151;BME280;55720;51.972;4.624;2022-09-09T05:06:16;100823.63;;;14.00;100.00
35151;BME280;55720;51.972;4.624;2022-09-09T05:08:42;100816.72;;;14.06;100.00
35151;BME280;55720;51.972;4.624;2022-09-09T05:11:17;100816.44;;;14.11;100.00
35151;BME280;55720;51.972;4.624;2022-09-09T05:13:43;100813.66;;;14.11;100.00
35151;BME280;55720;51.972;4.624;2022-09-09T05:16:09;100818.75;;;14.09;100.00
35151;BME280;55720;51.972;4.624;2022-09-09T05:18:36;100811.28;;;14.10;100.00
35151;BME280;55720;51.972;4.624;2022-09-09T05:21:01;100816.44;;;14.11;100.00
35151;BME280;55720;51.972;4.624;2022-09-09T05:23:27;100814.03;;;14.10;100.00
35151;BME280;55720;51.972;4.624;2022-09-09T05:25:56;100813.41;;;14.16;100.00
35151;BME280;55720;51.972;4.624;2022-09-09T05:28:21;100812.59;;;14.16;100.00
35151;BME280;55720;51.972;4.624;2022-09-09T05:30:54;100807.63;;;14.21;100.00
35151;BME280;55720;51.972;4.624;2022-09-09T05:33:19;100809.75;;;14.28;100.00
35151;BME280;55720;51.972;4.624;2022-09-09T05:35:46;100806.13;;;14.40;100.00
35151;BME280;55720;51.972;4.624;2022-09-09T05:38:11;100806.72;;;14.49;100.00
35151;BME280;55720;51.972;4.624;2022-09-09T05:40:36;100804.28;;;14.63;100.00
35151;BME280;55720;51.972;4.624;2022-09-09T05:43:01;100806.13;;;14.74;100.00
35151;BME280;55720;51.972;4.624;2022-09-09T05:45:27;100810.28;;;14.84;100.00
35151;BME280;55720;51.972;4.624;2022-09-09T05:47:52;100805.81;;;15.14;100.00
35151;BME280;55720;51.972;4.624;2022-09-09T05:50:20;100791.25;;;15.17;100.00
35151;BME280;55720;51.972;4.624;2022-09-09T05:52:45;100804.34;;;15.40;100.00
35151;BME280;55720;51.972;4.624;2022-09-09T05:55:11;100802.72;;;15.39;100.00
35151;BME280;55720;51.972;4.624;2022-09-09T05:57:36;100805.44;;;15.54;100.00
35151;BME280;55720;51.972;4.624;2022-09-09T06:00:02;100802.88;;;15.65;100.00
35151;BME280;55720;51.972;4.624;2022-09-09T06:02:27;100804.34;;;15.82;100.00
35151;BME280;55720;51.972;4.624;2022-09-09T06:04:53;100789.06;;;15.88;100.00
35151;BME280;55720;51.972;4.624;2022-09-09T06:07:18;100802.75;;;16.03;100.00
35151;BME280;55720;51.972;4.624;2022-09-09T06:09:43;100761.66;;;16.05;100.00
35151;BME280;55720;51.972;4.624;2022-09-09T06:12:08;100738.75;;;16.08;100.00
35151;BME280;55720;51.972;4.624;2022-09-09T06:14:34;100715.31;;;16.02;100.00
35151;BME280;55720;51.972;4.624;2022-09-09T06:16:59;100689.34;;;16.14;100.00
35151;BME280;55720;51.972;4.624;2022-09-09T06:19:24;100662.75;;;16.06;100.00
35151;BME280;55720;51.972;4.624;2022-09-09T06:21:51;100648.72;;;15.95;100.00
35151;BME280;55720;51.972;4.624;2022-09-09T06:24:16;100643.81;;;15.85;100.00
35151;BME280;55720;51.972;4.624;2022-09-09T06:26:44;100624.91;;;15.87;100.00
35151;BME280;55720;51.972;4.624;2022-09-09T06:29:10;100613.16;;;15.97;100.00
35151;BME280;55720;51.972;4.624;2022-09-09T06:31:35;100596.34;;;16.09;100.00
35151;BME280;55720;51.972;4.624;2022-09-09T06:34:02;100588.97;;;16.20;100.00
35151;BME280;55720;51.972;4.624;2022-09-09T06:36:29;100561.31;;;16.57;100.00
35151;BME280;55720;51.972;4.624;2022-09-09T06:38:56;100523.63;;;16.93;100.00
35151;BME280;55720;51.972;4.624;2022-09-09T06:41:22;100503.56;;;17.07;100.00
35151;BME280;55720;51.972;4.624;2022-09-09T06:43:47;100484.16;;;16.63;100.00
35151;BME280;55720;51.972;4.624;2022-09-09T06:46:16;100472.34;;;16.69;100.00
35151;BME280;55720;51.972;4.624;2022-09-09T06:48:42;100452.22;;;16.39;100.00
35151;BME280;55720;51.972;4.624;2022-09-09T06:51:19;100456.41;;;16.59;100.00
35151;BME280;55720;51.972;4.624;2022-09-09T06:53:46;100455.91;;;16.54;100.00
35151;BME280;55720;51.972;4.624;2022-09-09T06:58:51;100430.91;;;16.47;100.00
35151;BME280;55720;51.972;4.624;2022-09-09T07:01:17;100428.88;;;16.40;100.00
35151;BME280;55720;51.972;4.624;2022-09-09T07:03:48;100433.25;;;16.41;100.00
35151;BME280;55720;51.972;4.624;2022-09-09T07:06:18;100434.72;;;16.32;100.00
35151;BME280;55720;51.972;4.624;2022-09-09T07:08:44;100424.94;;;16.41;100.00
35151;BME280;55720;51.972;4.624;2022-09-09T07:11:13;100411.66;;;16.61;100.00
35151;BME280;55720;51.972;4.624;2022-09-09T07:13:38;100405.44;;;16.71;100.00
35151;BME280;55720;51.972;4.624;2022-09-09T07:16:04;100390.22;;;17.05;100.00
35151;BME280;55720;51.972;4.624;2022-09-09T07:18:30;100369.97;;;17.01;100.00
35151;BME280;55720;51.972;4.624;2022-09-09T07:20:56;100366.28;;;16.83;100.00
35151;BME280;55720;51.972;4.624;2022-09-09T07:23:22;100355.81;;;17.20;100.00
35151;BME280;55720;51.972;4.624;2022-09-09T07:25:47;100334.31;;;17.00;100.00
35151;BME280;55720;51.972;4.624;2022-09-09T07:28:12;100337.88;;;17.00;100.00
35151;BME280;55720;51.972;4.624;2022-09-09T07:30:38;100336.19;;;16.82;100.00
35151;BME280;55720;51.972;4.624;2022-09-09T07:33:03;100334.56;;;16.77;100.00
35151;BME280;55720;51.972;4.624;2022-09-09T07:35:28;100343.28;;;16.79;100.00
35151;BME280;55720;51.972;4.624;2022-09-09T07:37:54;100338.47;;;16.69;100.00
35151;BME280;55720;51.972;4.624;2022-09-09T07:40:19;100352.31;;;16.65;100.00
35151;BME280;55720;51.972;4.624;2022-09-09T07:42:46;100351.91;;;16.63;100.00
35151;BME280;55720;51.972;4.624;2022-09-09T07:45:11;100355.81;;;16.59;100.00
35151;BME280;55720;51.972;4.624;2022-09-09T07:47:37;100364.47;;;16.54;100.00
35151;BME280;55720;51.972;4.624;2022-09-09T07:50:02;100367.63;;;16.52;100.00
35151;BME280;55720;51.972;4.624;2022-09-09T07:52:27;100380.28;;;16.53;100.00
35151;BME280;55720;51.972;4.624;2022-09-09T07:54:52;100382.09;;;16.35;100.00
35151;BME280;55720;51.972;4.624;2022-09-09T07:57:18;100387.75;;;16.42;100.00
35151;BME280;55720;51.972;4.624;2022-09-09T07:59:43;100400.78;;;16.42;100.00
35151;BME280;55720;51.972;4.624;2022-09-09T08:02:09;100406.84;;;16.54;100.00
35151;BME280;55720;51.972;4.624;2022-09-09T08:04:34;100409.66;;;16.58;100.00
35151;BME280;55720;51.972;4.624;2022-09-09T08:07:00;100408.50;;;16.59;100.00
35151;BME280;55720;51.972;4.624;2022-09-09T08:09:26;100400.06;;;16.48;100.00
35151;BME280;55720;51.972;4.624;2022-09-09T08:11:53;100412.16;;;16.70;100.00
35151;BME280;55720;51.972;4.624;2022-09-09T08:14:19;100412.13;;;16.66;100.00
35151;BME280;55720;51.972;4.624;2022-09-09T08:16:45;100410.53;;;16.69;100.00
35151;BME280;55720;51.972;4.624;2022-09-09T08:19:11;100406.19;;;16.71;100.00
35151;BME280;55720;51.972;4.624;2022-09-09T08:21:36;100396.53;;;16.55;100.00
35151;BME280;55720;51.972;4.624;2022-09-09T08:24:03;100412.59;;;16.79;100.00
35151;BME280;55720;51.972;4.624;2022-09-09T08:26:30;100405.84;;;16.73;100.00
35151;BME280;55720;51.972;4.624;2022-09-09T08:28:57;100407.72;;;16.62;100.00
35151;BME280;55720;51.972;4.624;2022-09-09T08:31:23;100415.75;;;16.74;100.00
35151;BME280;55720;51.972;4.624;2022-09-09T08:33:49;100410.25;;;16.81;100.00
35151;BME280;55720;51.972;4.624;2022-09-09T08:36:17;100415.00;;;16.81;100.00
35151;BME280;55720;51.972;4.624;2022-09-09T08:38:43;100404.28;;;16.79;100.00
35151;BME280;55720;51.972;4.624;2022-09-09T08:43:39;100401.22;;;16.91;100.00
35151;BME280;55720;51.972;4.624;2022-09-09T08:46:11;100397.91;;;16.75;100.00
35151;BME280;55720;51.972;4.624;2022-09-09T08:48:43;100410.88;;;16.64;100.00
35151;BME280;55720;51.972;4.624;2022-09-09T08:51:10;100414.50;;;16.68;100.00
35151;BME280;55720;51.972;4.624;2022-09-09T08:53:42;100417.59;;;16.59;100.00
35151;BME280;55720;51.972;4.624;2022-09-09T08:56:10;100433.31;;;16.48;100.00
35151;BME280;55720;51.972;4.624;2022-09-09T08:58:39;100465.22;;;16.35;100.00
35151;BME280;55720;51.972;4.624;2022-09-09T09:03:43;100522.09;;;16.22;100.00
35151;BME280;55720;51.972;4.624;2022-09-09T09:06:20;100542.81;;;16.35;100.00
35151;BME280;55720;51.972;4.624;2022-09-09T09:11:14;100571.00;;;16.41;100.00
35151;BME280;55720;51.972;4.624;2022-09-09T09:18:45;100599.41;;;16.34;100.00
35151;BME280;55720;51.972;4.624;2022-09-09T09:23:56;100634.38;;;16.42;100.00
35151;BME280;55720;51.972;4.624;2022-09-09T09:26:23;100635.03;;;16.36;100.00
35151;BME280;55720;51.972;4.624;2022-09-09T09:28:49;100647.78;;;16.40;100.00
35151;BME280;55720;51.972;4.624;2022-09-09T09:31:16;100651.75;;;16.43;100.00
35151;BME280;55720;51.972;4.624;2022-09-09T09:33:50;100650.59;;;16.44;100.00
35151;BME280;55720;51.972;4.624;2022-09-09T09:36:17;100665.06;;;16.56;100.00
35151;BME280;55720;51.972;4.624;2022-09-09T09:41:19;100657.56;;;16.60;100.00
35151;BME280;55720;51.972;4.624;2022-09-09T09:43:54;100646.50;;;16.64;100.00
35151;BME280;55720;51.972;4.624;2022-09-09T09:46:20;100636.63;;;16.63;100.00
35151;BME280;55720;51.972;4.624;2022-09-09T09:48:58;100627.56;;;17.03;100.00
35151;BME280;55720;51.972;4.624;2022-09-09T09:51:23;100596.56;;;17.41;100.00
35151;BME280;55720;51.972;4.624;2022-09-09T09:53:50;100549.25;;;17.71;100.00
35151;BME280;55720;51.972;4.624;2022-09-09T09:56:17;100523.44;;;18.75;100.00
35151;BME280;55720;51.972;4.624;2022-09-09T09:58:51;100444.78;;;19.16;100.00
35151;BME280;55720;51.972;4.624;2022-09-09T10:01:22;100380.81;;;18.78;100.00
35151;BME280;55720;51.972;4.624;2022-09-09T10:03:55;100350.22;;;18.46;100.00
35151;BME280;55720;51.972;4.624;2022-09-09T10:06:32;100315.28;;;18.59;100.00
35151;BME280;55720;51.972;4.624;2022-09-09T10:08:58;100306.91;;;18.41;100.00
35151;BME280;55720;51.972;4.624;2022-09-09T10:11:34;100305.34;;;18.44;100.00
35151;BME280;55720;51.972;4.624;2022-09-09T10:19:10;100333.53;;;18.39;100.00
35151;BME280;55720;51.972;4.624;2022-09-09T10:24:22;100394.41;;;17.47;100.00
35151;BME280;55720;51.972;4.624;2022-09-09T10:29:40;100451.06;;;17.39;100.00
35151;BME280;55720;51.972;4.624;2022-09-09T10:34:42;100472.25;;;17.64;100.00
35151;BME280;55720;51.972;4.624;2022-09-09T10:37:21;100472.09;;;17.40;100.00
35151;BME280;55720;51.972;4.624;2022-09-09T10:39:54;100488.38;;;17.48;100.00
35151;BME280;55720;51.972;4.624;2022-09-09T10:42:26;100498.06;;;17.68;100.00
35151;BME280;55720;51.972;4.624;2022-09-09T10:45:13;100478.66;;;17.72;100.00
35151;BME280;55720;51.972;4.624;2022-09-09T10:50:22;100457.03;;;17.44;100.00
35151;BME280;55720;51.972;4.624;2022-09-09T10:55:21;100458.09;;;17.26;100.00
35151;BME280;55720;51.972;4.624;2022-09-09T10:57:50;100499.66;;;17.18;100.00
35151;BME280;55720;51.972;4.624;2022-09-09T11:00:35;100519.50;;;17.20;100.00
35151;BME280;55720;51.972;4.624;2022-09-09T11:03:03;100567.09;;;17.22;100.00
35151;BME280;55720;51.972;4.624;2022-09-09T11:08:05;100571.44;;;17.71;100.00
35151;BME280;55720;51.972;4.624;2022-09-09T11:10:39;100552.59;;;18.05;100.00
35151;BME280;55720;51.972;4.624;2022-09-09T11:18:48;100435.53;;;18.20;100.00
35151;BME280;55720;51.972;4.624;2022-09-09T11:21:19;100411.38;;;18.42;100.00
35151;BME280;55720;51.972;4.624;2022-09-09T11:23:54;100392.31;;;18.44;100.00
35151;BME280;55720;51.972;4.624;2022-09-09T11:26:30;100366.50;;;18.79;100.00
35151;BME280;55720;51.972;4.624;2022-09-09T11:29:15;100347.06;;;18.65;100.00
35151;BME280;55720;51.972;4.624;2022-09-09T11:42:05;100284.84;;;19.46;100.00
35151;BME280;55720;51.972;4.624;2022-09-09T11:44:31;100295.78;;;18.87;100.00
35151;BME280;55720;51.972;4.624;2022-09-09T11:46:57;100302.97;;;18.53;100.00
35151;BME280;55720;51.972;4.624;2022-09-09T11:52:10;100376.28;;;17.74;100.00
35151;BME280;55720;51.972;4.624;2022-09-09T11:54:44;100443.81;;;17.20;100.00
35151;BME280;55720;51.972;4.624;2022-09-09T11:59:55;100568.50;;;17.02;100.00
35151;BME280;55720;51.972;4.624;2022-09-09T12:02:25;100625.66;;;17.10;100.00
35151;BME280;55720;51.972;4.624;2022-09-09T12:04:55;100675.16;;;17.08;100.00
35151;BME280;55720;51.972;4.624;2022-09-09T12:07:30;100712.09;;;17.16;100.00
35151;BME280;55720;51.972;4.624;2022-09-09T12:12:30;100777.47;;;17.13;100.00
35151;BME280;55720;51.972;4.624;2022-09-09T12:17:41;100804.94;;;16.92;100.00
35151;BME280;55720;51.972;4.624;2022-09-09T12:20:17;100811.50;;;16.81;100.00
35151;BME280;55720;51.972;4.624;2022-09-09T12:22:50;100845.44;;;16.70;100.00
35151;BME280;55720;51.972;4.624;2022-09-09T12:28:02;100849.88;;;16.52;100.00
35151;BME280;55720;51.972;4.624;2022-09-09T12:30:55;100850.25;;;16.51;100.00
35151;BME280;55720;51.972;4.624;2022-09-09T12:33:16;100834.59;;;16.62;100.00
35151;BME280;55720;51.972;4.624;2022-09-09T12:35:43;100832.00;;;16.72;100.00
35151;BME280;55720;51.972;4.624;2022-09-09T12:38:12;100836.34;;;17.00;100.00
35151;BME280;55720;51.972;4.624;2022-09-09T12:40:39;100829.84;;;17.18;100.00
35151;BME280;55720;51.972;4.624;2022-09-09T12:43:18;100850.84;;;17.49;100.00
35151;BME280;55720;51.972;4.624;2022-09-09T12:45:44;100861.75;;;17.61;100.00
35151;BME280;55720;51.972;4.624;2022-09-09T12:48:10;100862.22;;;17.41;100.00
35151;BME280;55720;51.972;4.624;2022-09-09T12:50:46;100866.00;;;17.26;100.00
35151;BME280;55720;51.972;4.624;2022-09-09T12:53:16;100866.53;;;17.05;100.00
35151;BME280;55720;51.972;4.624;2022-09-09T12:55:49;100879.81;;;16.92;100.00
35151;BME280;55720;51.972;4.624;2022-09-09T12:58:15;100880.69;;;16.96;100.00
35151;BME280;55720;51.972;4.624;2022-09-09T13:00:48;100875.09;;;16.93;100.00
35151;BME280;55720;51.972;4.624;2022-09-09T13:03:18;100876.03;;;16.78;100.00
35151;BME280;55720;51.972;4.624;2022-09-09T13:05:45;100871.97;;;16.98;100.00
35151;BME280;55720;51.972;4.624;2022-09-09T13:08:12;100878.75;;;16.74;100.00
35151;BME280;55720;51.972;4.624;2022-09-09T13:10:44;100882.28;;;16.71;100.00
35151;BME280;55720;51.972;4.624;2022-09-09T13:13:19;100878.69;;;16.48;100.00
35151;BME280;55720;51.972;4.624;2022-09-09T13:15:49;100870.03;;;16.49;100.00
35151;BME280;55720;51.972;4.624;2022-09-09T13:18:15;100862.75;;;16.64;100.00
35151;BME280;55720;51.972;4.624;2022-09-09T13:20:50;100842.81;;;16.81;100.00
35151;BME280;55720;51.972;4.624;2022-09-09T13:23:16;100844.97;;;16.95;100.00
35151;BME280;55720;51.972;4.624;2022-09-09T13:25:54;100849.97;;;17.12;100.00
35151;BME280;55720;51.972;4.624;2022-09-09T13:28:21;100884.31;;;17.60;100.00
35151;BME280;55720;51.972;4.624;2022-09-09T13:30:54;100888.31;;;17.99;100.00
35151;BME280;55720;51.972;4.624;2022-09-09T13:33:22;100893.94;;;18.47;100.00
35151;BME280;55720;51.972;4.624;2022-09-09T13:35:55;100884.72;;;18.83;100.00
35151;BME280;55720;51.972;4.624;2022-09-09T13:38:21;100869.56;;;19.42;100.00
35151;BME280;55720;51.972;4.624;2022-09-09T13:43:22;100845.44;;;19.89;100.00
35151;BME280;55720;51.972;4.624;2022-09-09T13:45:52;100798.44;;;19.80;100.00
35151;BME280;55720;51.972;4.624;2022-09-09T13:48:18;100735.81;;;19.25;100.00
35151;BME280;55720;51.972;4.624;2022-09-09T13:50:53;100685.31;;;19.23;100.00
35151;BME280;55720;51.972;4.624;2022-09-09T13:53:18;100645.03;;;18.74;100.00
35151;BME280;55720;51.972;4.624;2022-09-09T13:55:43;100638.22;;;18.57;100.00
35151;BME280;55720;51.972;4.624;2022-09-09T13:58:14;100648.03;;;18.34;100.00
35151;BME280;55720;51.972;4.624;2022-09-09T14:00:40;100664.19;;;17.59;100.00
35151;BME280;55720;51.972;4.624;2022-09-09T14:03:06;100699.34;;;17.11;100.00
35151;BME280;55720;51.972;4.624;2022-09-09T14:05:32;100771.88;;;16.80;100.00
35151;BME280;55720;51.972;4.624;2022-09-09T14:07:58;100810.91;;;16.68;100.00
35151;BME280;55720;51.972;4.624;2022-09-09T14:10:25;100841.31;;;16.61;100.00
35151;BME280;55720;51.972;4.624;2022-09-09T14:12:50;100866.59;;;16.56;100.00
35151;BME280;55720;51.972;4.624;2022-09-09T14:15:16;100883.56;;;16.54;100.00
35151;BME280;55720;51.972;4.624;2022-09-09T14:17:41;100901.34;;;16.53;100.00
35151;BME280;55720;51.972;4.624;2022-09-09T14:20:07;100902.47;;;16.49;100.00
35151;BME280;55720;51.972;4.624;2022-09-09T14:22:33;100899.72;;;16.49;100.00
35151;BME280;55720;51.972;4.624;2022-09-09T14:24:58;100894.59;;;16.51;100.00
35151;BME280;55720;51.972;4.624;2022-09-09T14:27:23;100893.94;;;16.57;100.00
35151;BME280;55720;51.972;4.624;2022-09-09T14:29:50;100871.06;;;16.64;100.00
35151;BME280;55720;51.972;4.624;2022-09-09T14:32:16;100868.72;;;16.66;100.00
35151;BME280;55720;51.972;4.624;2022-09-09T14:34:41;100867.72;;;16.78;100.00
35151;BME280;55720;51.972;4.624;2022-09-09T14:37:06;100884.06;;;16.86;100.00